sensor_id;sensor_type;location;lat;lon;timestamp;temperature;humidity
49373;DHT22;44113;38.408;-122.974;2022-07-29T00:01:31;24.70;57.50
49373;DHT22;44113;38.408;-122.974;2022-07-29T00:03:58;24.60;57.20
49373;DHT22;44113;38.408;-122.974;2022-07-29T00:06:25;24.70;57.40
49373;DHT22;44113;38.408;-122.974;2022-07-29T00:08:51;24.70;57.00
49373;DHT22;44113;38.408;-122.974;2022-07-29T00:11:18;24.60;57.10
49373;DHT22;44113;38.408;-122.974;2022-07-29T00:13:45;24.60;57.20
49373;DHT22;44113;38.408;-122.974;2022-07-29T00:16:11;24.60;57.30
49373;DHT22;44113;38.408;-122.974;2022-07-29T00:18:39;24.60;57.90
49373;DHT22;44113;38.408;-122.974;2022-07-29T00:21:05;24.60;57.30
49373;DHT22;44113;38.408;-122.974;2022-07-29T00:23:32;24.60;57.30
49373;DHT22;44113;38.408;-122.974;2022-07-29T00:25:59;24.60;57.30
49373;DHT22;44113;38.408;-122.974;2022-07-29T00:28:27;24.60;57.10
49373;DHT22;44113;38.408;-122.974;2022-07-29T00:30:53;24.70;57.00
49373;DHT22;44113;38.408;-122.974;2022-07-29T00:33:20;24.70;56.90
49373;DHT22;44113;38.408;-122.974;2022-07-29T00:35:47;24.60;57.00
49373;DHT22;44113;38.408;-122.974;2022-07-29T00:38:16;24.70;57.00
49373;DHT22;44113;38.408;-122.974;2022-07-29T00:40:44;24.70;56.90
49373;DHT22;44113;38.408;-122.974;2022-07-29T00:43:12;24.60;56.70
49373;DHT22;44113;38.408;-122.974;2022-07-29T00:45:42;24.60;56.80
49373;DHT22;44113;38.408;-122.974;2022-07-29T00:48:10;24.60;57.00
49373;DHT22;44113;38.408;-122.974;2022-07-29T00:50:36;24.60;57.00
49373;DHT22;44113;38.408;-122.974;2022-07-29T00:53:05;24.60;57.10
49373;DHT22;44113;38.408;-122.974;2022-07-29T00:55:32;24.60;57.10
49373;DHT22;44113;38.408;-122.974;2022-07-29T00:58:00;24.60;57.20
49373;DHT22;44113;38.408;-122.974;2022-07-29T01:00:28;24.60;57.30
49373;DHT22;44113;38.408;-122.974;2022-07-29T01:02:55;24.60;57.40
49373;DHT22;44113;38.408;-122.974;2022-07-29T01:05:23;24.60;57.30
49373;DHT22;44113;38.408;-122.974;2022-07-29T01:07:53;24.60;57.20
49373;DHT22;44113;38.408;-122.974;2022-07-29T01:10:21;24.60;57.30
49373;DHT22;44113;38.408;-122.974;2022-07-29T01:12:50;24.60;57.30
49373;DHT22;44113;38.408;-122.974;2022-07-29T01:15:17;24.60;57.20
49373;DHT22;44113;38.408;-122.974;2022-07-29T01:18:00;24.60;57.20
49373;DHT22;44113;38.408;-122.974;2022-07-29T01:23:27;24.60;57.10
49373;DHT22;44113;38.408;-122.974;2022-07-29T01:26:08;24.60;57.00
49373;DHT22;44113;38.408;-122.974;2022-07-29T01:31:33;24.60;56.80
49373;DHT22;44113;38.408;-122.974;2022-07-29T01:34:06;24.60;56.80
49373;DHT22;44113;38.408;-122.974;2022-07-29T01:36:43;24.60;56.80
49373;DHT22;44113;38.408;-122.974;2022-07-29T01:39:18;24.60;56.70
49373;DHT22;44113;38.408;-122.974;2022-07-29T01:41:58;24.60;56.80
49373;DHT22;44113;38.408;-122.974;2022-07-29T01:44:41;24.60;56.80
49373;DHT22;44113;38.408;-122.974;2022-07-29T01:47:19;24.60;56.80
49373;DHT22;44113;38.408;-122.974;2022-07-29T01:49:51;24.50;57.30
49373;DHT22;44113;38.408;-122.974;2022-07-29T01:52:39;24.40;56.60
49373;DHT22;44113;38.408;-122.974;2022-07-29T01:55:15;24.50;56.70
49373;DHT22;44113;38.408;-122.974;2022-07-29T01:57:44;24.40;56.60
49373;DHT22;44113;38.408;-122.974;2022-07-29T02:00:13;24.40;56.60
49373;DHT22;44113;38.408;-122.974;2022-07-29T02:02:42;24.40;56.60
49373;DHT22;44113;38.408;-122.974;2022-07-29T02:05:14;24.30;56.60
49373;DHT22;44113;38.408;-122.974;2022-07-29T02:07:42;24.40;56.70
49373;DHT22;44113;38.408;-122.974;2022-07-29T02:10:10;24.30;56.30
49373;DHT22;44113;38.408;-122.974;2022-07-29T02:12:39;24.30;56.30
49373;DHT22;44113;38.408;-122.974;2022-07-29T02:15:07;24.30;56.30
49373;DHT22;44113;38.408;-122.974;2022-07-29T02:17:39;24.30;56.30
49373;DHT22;44113;38.408;-122.974;2022-07-29T02:20:08;24.20;56.40
49373;DHT22;44113;38.408;-122.974;2022-07-29T02:22:38;24.20;56.40
49373;DHT22;44113;38.408;-122.974;2022-07-29T02:25:06;24.20;56.50
49373;DHT22;44113;38.408;-122.974;2022-07-29T02:27:35;24.10;56.60
49373;DHT22;44113;38.408;-122.974;2022-07-29T02:30:06;24.10;56.80
49373;DHT22;44113;38.408;-122.974;2022-07-29T02:32:35;24.10;56.40
49373;DHT22;44113;38.408;-122.974;2022-07-29T02:35:04;24.00;56.30
49373;DHT22;44113;38.408;-122.974;2022-07-29T02:37:32;24.00;56.40
49373;DHT22;44113;38.408;-122.974;2022-07-29T02:39:59;23.90;56.40
49373;DHT22;44113;38.408;-122.974;2022-07-29T02:42:27;23.80;56.40
49373;DHT22;44113;38.408;-122.974;2022-07-29T02:44:55;23.80;56.60
49373;DHT22;44113;38.408;-122.974;2022-07-29T02:47:43;23.70;56.50
49373;DHT22;44113;38.408;-122.974;2022-07-29T02:50:22;23.70;56.80
49373;DHT22;44113;38.408;-122.974;2022-07-29T02:55:30;23.50;57.30
49373;DHT22;44113;38.408;-122.974;2022-07-29T02:58:01;23.40;57.50
49373;DHT22;44113;38.408;-122.974;2022-07-29T03:00:30;23.40;57.90
49373;DHT22;44113;38.408;-122.974;2022-07-29T03:02:59;23.30;58.20
49373;DHT22;44113;38.408;-122.974;2022-07-29T03:05:30;23.20;58.20
49373;DHT22;44113;38.408;-122.974;2022-07-29T03:08:01;23.10;58.30
49373;DHT22;44113;38.408;-122.974;2022-07-29T03:10:29;23.10;58.40
49373;DHT22;44113;38.408;-122.974;2022-07-29T03:12:57;22.90;58.40
49373;DHT22;44113;38.408;-122.974;2022-07-29T03:15:24;22.90;58.70
49373;DHT22;44113;38.408;-122.974;2022-07-29T03:17:53;22.80;58.80
49373;DHT22;44113;38.408;-122.974;2022-07-29T03:20:19;22.90;58.70
49373;DHT22;44113;38.408;-122.974;2022-07-29T03:22:46;22.90;58.80
49373;DHT22;44113;38.408;-122.974;2022-07-29T03:25:17;22.90;58.50
49373;DHT22;44113;38.408;-122.974;2022-07-29T03:27:45;23.00;58.40
49373;DHT22;44113;38.408;-122.974;2022-07-29T03:30:12;23.00;58.50
49373;DHT22;44113;38.408;-122.974;2022-07-29T03:32:40;23.00;58.10
49373;DHT22;44113;38.408;-122.974;2022-07-29T03:35:07;23.00;58.20
49373;DHT22;44113;38.408;-122.974;2022-07-29T03:37:36;23.10;58.40
49373;DHT22;44113;38.408;-122.974;2022-07-29T03:40:07;23.10;58.20
49373;DHT22;44113;38.408;-122.974;2022-07-29T03:42:37;23.10;57.80
49373;DHT22;44113;38.408;-122.974;2022-07-29T03:45:07;23.10;57.90
49373;DHT22;44113;38.408;-122.974;2022-07-29T03:47:39;23.10;58.10
49373;DHT22;44113;38.408;-122.974;2022-07-29T03:50:10;23.10;58.20
49373;DHT22;44113;38.408;-122.974;2022-07-29T03:52:37;23.10;58.40
49373;DHT22;44113;38.408;-122.974;2022-07-29T03:55:05;23.10;58.40
49373;DHT22;44113;38.408;-122.974;2022-07-29T03:57:32;23.10;58.40
49373;DHT22;44113;38.408;-122.974;2022-07-29T04:00:00;23.10;58.60
49373;DHT22;44113;38.408;-122.974;2022-07-29T04:02:28;23.10;58.50
49373;DHT22;44113;38.408;-122.974;2022-07-29T04:04:55;23.10;58.60
49373;DHT22;44113;38.408;-122.974;2022-07-29T04:07:21;23.10;58.50
49373;DHT22;44113;38.408;-122.974;2022-07-29T04:09:48;23.10;58.50
49373;DHT22;44113;38.408;-122.974;2022-07-29T04:12:14;23.10;58.50
49373;DHT22;44113;38.408;-122.974;2022-07-29T04:14:41;23.00;58.60
49373;DHT22;44113;38.408;-122.974;2022-07-29T04:17:07;23.10;58.70
49373;DHT22;44113;38.408;-122.974;2022-07-29T04:19:34;23.10;58.90
49373;DHT22;44113;38.408;-122.974;2022-07-29T04:22:01;23.10;59.00
49373;DHT22;44113;38.408;-122.974;2022-07-29T04:24:28;23.10;59.00
49373;DHT22;44113;38.408;-122.974;2022-07-29T04:26:54;23.10;59.00
49373;DHT22;44113;38.408;-122.974;2022-07-29T04:29:21;23.10;59.00
49373;DHT22;44113;38.408;-122.974;2022-07-29T04:31:48;23.10;59.00
49373;DHT22;44113;38.408;-122.974;2022-07-29T04:34:15;23.10;58.90
49373;DHT22;44113;38.408;-122.974;2022-07-29T04:36:41;23.10;59.00
49373;DHT22;44113;38.408;-122.974;2022-07-29T04:39:08;23.10;59.00
49373;DHT22;44113;38.408;-122.974;2022-07-29T04:41:35;23.10;59.00
49373;DHT22;44113;38.408;-122.974;2022-07-29T04:44:01;23.10;59.00
49373;DHT22;44113;38.408;-122.974;2022-07-29T04:46:31;23.00;59.00
49373;DHT22;44113;38.408;-122.974;2022-07-29T04:48:57;23.00;59.00
49373;DHT22;44113;38.408;-122.974;2022-07-29T04:51:24;23.00;59.10
49373;DHT22;44113;38.408;-122.974;2022-07-29T04:53:50;23.00;59.10
49373;DHT22;44113;38.408;-122.974;2022-07-29T04:56:16;23.00;59.10
49373;DHT22;44113;38.408;-122.974;2022-07-29T04:58:43;22.90;59.20
49373;DHT22;44113;38.408;-122.974;2022-07-29T05:01:09;22.90;59.20
49373;DHT22;44113;38.408;-122.974;2022-07-29T05:03:36;22.90;59.20
49373;DHT22;44113;38.408;-122.974;2022-07-29T05:06:02;22.90;59.20
49373;DHT22;44113;38.408;-122.974;2022-07-29T05:08:29;22.90;59.30
49373;DHT22;44113;38.408;-122.974;2022-07-29T05:10:55;22.90;59.20
49373;DHT22;44113;38.408;-122.974;2022-07-29T05:13:22;22.90;59.20
49373;DHT22;44113;38.408;-122.974;2022-07-29T05:15:48;22.90;59.20
49373;DHT22;44113;38.408;-122.974;2022-07-29T05:18:15;22.90;59.20
49373;DHT22;44113;38.408;-122.974;2022-07-29T05:20:41;22.80;59.30
49373;DHT22;44113;38.408;-122.974;2022-07-29T05:23:08;22.80;59.30
49373;DHT22;44113;38.408;-122.974;2022-07-29T05:25:34;22.80;59.30
49373;DHT22;44113;38.408;-122.974;2022-07-29T05:28:01;22.80;59.30
49373;DHT22;44113;38.408;-122.974;2022-07-29T05:30:27;22.80;59.40
49373;DHT22;44113;38.408;-122.974;2022-07-29T05:32:54;22.80;59.30
49373;DHT22;44113;38.408;-122.974;2022-07-29T05:35:20;22.70;59.30
49373;DHT22;44113;38.408;-122.974;2022-07-29T05:37:47;22.80;59.50
49373;DHT22;44113;38.408;-122.974;2022-07-29T05:40:13;22.70;59.50
49373;DHT22;44113;38.408;-122.974;2022-07-29T05:42:40;22.80;59.50
49373;DHT22;44113;38.408;-122.974;2022-07-29T05:45:08;22.70;59.40
49373;DHT22;44113;38.408;-122.974;2022-07-29T05:47:34;22.70;59.50
49373;DHT22;44113;38.408;-122.974;2022-07-29T05:50:01;22.70;59.50
49373;DHT22;44113;38.408;-122.974;2022-07-29T05:52:27;22.70;59.50
49373;DHT22;44113;38.408;-122.974;2022-07-29T05:54:54;22.70;59.50
49373;DHT22;44113;38.408;-122.974;2022-07-29T05:57:22;22.70;59.50
49373;DHT22;44113;38.408;-122.974;2022-07-29T05:59:50;22.60;59.50
49373;DHT22;44113;38.408;-122.974;2022-07-29T06:02:17;22.60;59.50
49373;DHT22;44113;38.408;-122.974;2022-07-29T06:04:44;22.60;59.50
49373;DHT22;44113;38.408;-122.974;2022-07-29T06:07:11;22.60;59.60
49373;DHT22;44113;38.408;-122.974;2022-07-29T06:09:37;22.60;59.50
49373;DHT22;44113;38.408;-122.974;2022-07-29T06:12:04;22.60;59.50
49373;DHT22;44113;38.408;-122.974;2022-07-29T06:14:30;22.60;59.50
49373;DHT22;44113;38.408;-122.974;2022-07-29T06:16:58;22.60;59.50
49373;DHT22;44113;38.408;-122.974;2022-07-29T06:19:24;22.60;59.50
49373;DHT22;44113;38.408;-122.974;2022-07-29T06:21:51;22.60;59.50
49373;DHT22;44113;38.408;-122.974;2022-07-29T06:24:18;22.50;59.40
49373;DHT22;44113;38.408;-122.974;2022-07-29T06:26:45;22.50;59.50
49373;DHT22;44113;38.408;-122.974;2022-07-29T06:29:12;22.50;59.50
49373;DHT22;44113;38.408;-122.974;2022-07-29T06:31:39;22.50;59.50
49373;DHT22;44113;38.408;-122.974;2022-07-29T06:34:06;22.50;59.60
49373;DHT22;44113;38.408;-122.974;2022-07-29T06:36:35;22.40;59.50
49373;DHT22;44113;38.408;-122.974;2022-07-29T06:39:06;22.50;59.60
49373;DHT22;44113;38.408;-122.974;2022-07-29T06:41:33;22.50;59.60
49373;DHT22;44113;38.408;-122.974;2022-07-29T06:44:00;22.40;59.90
49373;DHT22;44113;38.408;-122.974;2022-07-29T06:46:27;22.40;59.50
49373;DHT22;44113;38.408;-122.974;2022-07-29T06:48:53;22.50;59.60
49373;DHT22;44113;38.408;-122.974;2022-07-29T06:51:21;22.50;59.60
49373;DHT22;44113;38.408;-122.974;2022-07-29T06:53:47;22.40;60.10
49373;DHT22;44113;38.408;-122.974;2022-07-29T06:56:14;22.40;59.50
49373;DHT22;44113;38.408;-122.974;2022-07-29T06:58:40;22.40;59.60
49373;DHT22;44113;38.408;-122.974;2022-07-29T07:01:07;22.40;59.60
49373;DHT22;44113;38.408;-122.974;2022-07-29T07:03:33;22.30;59.50
49373;DHT22;44113;38.408;-122.974;2022-07-29T07:06:00;22.30;59.70
49373;DHT22;44113;38.408;-122.974;2022-07-29T07:08:27;22.30;59.60
49373;DHT22;44113;38.408;-122.974;2022-07-29T07:10:53;22.30;59.60
49373;DHT22;44113;38.408;-122.974;2022-07-29T07:13:21;22.30;59.70
49373;DHT22;44113;38.408;-122.974;2022-07-29T07:15:47;22.30;59.70
49373;DHT22;44113;38.408;-122.974;2022-07-29T07:18:15;22.30;59.60
49373;DHT22;44113;38.408;-122.974;2022-07-29T07:20:42;22.30;59.60
49373;DHT22;44113;38.408;-122.974;2022-07-29T07:23:08;22.30;59.60
49373;DHT22;44113;38.408;-122.974;2022-07-29T07:25:34;22.30;59.60
49373;DHT22;44113;38.408;-122.974;2022-07-29T07:28:01;22.20;59.60
49373;DHT22;44113;38.408;-122.974;2022-07-29T07:30:28;22.20;59.60
49373;DHT22;44113;38.408;-122.974;2022-07-29T07:32:54;22.20;59.60
49373;DHT22;44113;38.408;-122.974;2022-07-29T07:35:21;22.20;60.20
49373;DHT22;44113;38.408;-122.974;2022-07-29T07:37:48;22.20;59.70
49373;DHT22;44113;38.408;-122.974;2022-07-29T07:40:14;22.20;59.60
49373;DHT22;44113;38.408;-122.974;2022-07-29T07:42:41;22.20;60.10
49373;DHT22;44113;38.408;-122.974;2022-07-29T07:45:08;22.20;59.50
49373;DHT22;44113;38.408;-122.974;2022-07-29T07:47:38;22.10;59.50
49373;DHT22;44113;38.408;-122.974;2022-07-29T07:50:07;22.20;59.50
49373;DHT22;44113;38.408;-122.974;2022-07-29T07:52:34;22.10;59.50
49373;DHT22;44113;38.408;-122.974;2022-07-29T07:55:11;22.10;59.40
49373;DHT22;44113;38.408;-122.974;2022-07-29T07:57:37;22.20;59.50
49373;DHT22;44113;38.408;-122.974;2022-07-29T08:00:04;22.10;59.40
49373;DHT22;44113;38.408;-122.974;2022-07-29T08:02:32;22.10;59.50
49373;DHT22;44113;38.408;-122.974;2022-07-29T08:04:58;22.10;59.50
49373;DHT22;44113;38.408;-122.974;2022-07-29T08:07:25;22.00;59.40
49373;DHT22;44113;38.408;-122.974;2022-07-29T08:09:52;22.00;59.40
49373;DHT22;44113;38.408;-122.974;2022-07-29T08:12:18;22.00;59.40
49373;DHT22;44113;38.408;-122.974;2022-07-29T08:14:45;22.00;59.40
49373;DHT22;44113;38.408;-122.974;2022-07-29T08:17:12;22.00;59.50
49373;DHT22;44113;38.408;-122.974;2022-07-29T08:19:38;22.00;59.40
49373;DHT22;44113;38.408;-122.974;2022-07-29T08:22:04;22.00;59.40
49373;DHT22;44113;38.408;-122.974;2022-07-29T08:24:31;22.00;59.40
49373;DHT22;44113;38.408;-122.974;2022-07-29T08:27:13;22.00;59.40
49373;DHT22;44113;38.408;-122.974;2022-07-29T08:29:40;22.00;59.40
49373;DHT22;44113;38.408;-122.974;2022-07-29T08:32:06;22.00;59.40
49373;DHT22;44113;38.408;-122.974;2022-07-29T08:34:33;21.90;59.50
49373;DHT22;44113;38.408;-122.974;2022-07-29T08:36:59;21.90;59.60
49373;DHT22;44113;38.408;-122.974;2022-07-29T08:39:26;21.90;59.60
49373;DHT22;44113;38.408;-122.974;2022-07-29T08:41:52;21.90;59.80
49373;DHT22;44113;38.408;-122.974;2022-07-29T08:44:21;21.90;59.60
49373;DHT22;44113;38.408;-122.974;2022-07-29T08:46:51;21.80;59.50
49373;DHT22;44113;38.408;-122.974;2022-07-29T08:49:17;21.80;59.50
49373;DHT22;44113;38.408;-122.974;2022-07-29T08:51:44;21.80;59.40
49373;DHT22;44113;38.408;-122.974;2022-07-29T08:54:11;21.80;59.40
49373;DHT22;44113;38.408;-122.974;2022-07-29T08:56:42;21.80;59.40
49373;DHT22;44113;38.408;-122.974;2022-07-29T08:59:09;21.80;59.50
49373;DHT22;44113;38.408;-122.974;2022-07-29T09:01:37;21.80;59.50
49373;DHT22;44113;38.408;-122.974;2022-07-29T09:04:11;21.80;59.60
49373;DHT22;44113;38.408;-122.974;2022-07-29T09:06:42;21.80;59.70
49373;DHT22;44113;38.408;-122.974;2022-07-29T09:09:08;21.80;60.30
49373;DHT22;44113;38.408;-122.974;2022-07-29T09:11:35;21.70;59.80
49373;DHT22;44113;38.408;-122.974;2022-07-29T09:14:02;21.70;59.80
49373;DHT22;44113;38.408;-122.974;2022-07-29T09:16:53;21.70;59.80
49373;DHT22;44113;38.408;-122.974;2022-07-29T09:19:21;21.70;59.90
49373;DHT22;44113;38.408;-122.974;2022-07-29T09:21:47;21.70;59.90
49373;DHT22;44113;38.408;-122.974;2022-07-29T09:29:38;21.70;59.70
49373;DHT22;44113;38.408;-122.974;2022-07-29T09:32:09;21.60;60.00
49373;DHT22;44113;38.408;-122.974;2022-07-29T09:34:37;21.50;59.70
49373;DHT22;44113;38.408;-122.974;2022-07-29T09:37:04;21.60;59.80
49373;DHT22;44113;38.408;-122.974;2022-07-29T09:39:33;21.50;59.90
49373;DHT22;44113;38.408;-122.974;2022-07-29T09:42:03;21.50;60.60
49373;DHT22;44113;38.408;-122.974;2022-07-29T09:44:49;21.50;60.10
49373;DHT22;44113;38.408;-122.974;2022-07-29T09:47:17;21.50;60.00
49373;DHT22;44113;38.408;-122.974;2022-07-29T09:49:59;21.40;59.90
49373;DHT22;44113;38.408;-122.974;2022-07-29T09:52:27;21.40;60.00
49373;DHT22;44113;38.408;-122.974;2022-07-29T09:55:15;21.40;59.90
49373;DHT22;44113;38.408;-122.974;2022-07-29T09:57:42;21.40;59.90
49373;DHT22;44113;38.408;-122.974;2022-07-29T10:00:14;21.30;59.90
49373;DHT22;44113;38.408;-122.974;2022-07-29T10:02:42;21.40;60.00
49373;DHT22;44113;38.408;-122.974;2022-07-29T10:05:27;21.30;60.00
49373;DHT22;44113;38.408;-122.974;2022-07-29T10:07:57;21.20;60.10
49373;DHT22;44113;38.408;-122.974;2022-07-29T10:10:32;21.20;60.10
49373;DHT22;44113;38.408;-122.974;2022-07-29T10:13:08;21.20;60.20
49373;DHT22;44113;38.408;-122.974;2022-07-29T10:15:37;21.20;60.30
49373;DHT22;44113;38.408;-122.974;2022-07-29T10:18:08;21.10;60.20
49373;DHT22;44113;38.408;-122.974;2022-07-29T10:20:35;21.10;60.20
49373;DHT22;44113;38.408;-122.974;2022-07-29T10:23:01;21.10;60.30
49373;DHT22;44113;38.408;-122.974;2022-07-29T10:25:28;21.10;60.20
49373;DHT22;44113;38.408;-122.974;2022-07-29T10:27:55;21.10;60.10
49373;DHT22;44113;38.408;-122.974;2022-07-29T10:30:23;21.10;60.10
49373;DHT22;44113;38.408;-122.974;2022-07-29T10:41:27;21.00;60.50
49373;DHT22;44113;38.408;-122.974;2022-07-29T10:44:04;20.90;60.50
49373;DHT22;44113;38.408;-122.974;2022-07-29T10:46:38;20.90;60.60
49373;DHT22;44113;38.408;-122.974;2022-07-29T10:49:18;20.90;60.50
49373;DHT22;44113;38.408;-122.974;2022-07-29T10:51:51;20.80;60.60
49373;DHT22;44113;38.408;-122.974;2022-07-29T10:57:21;20.80;60.50
49373;DHT22;44113;38.408;-122.974;2022-07-29T11:02:40;20.80;60.50
49373;DHT22;44113;38.408;-122.974;2022-07-29T11:05:20;20.80;60.50
49373;DHT22;44113;38.408;-122.974;2022-07-29T11:10:53;20.80;60.60
49373;DHT22;44113;38.408;-122.974;2022-07-29T11:13:52;20.70;60.70
49373;DHT22;44113;38.408;-122.974;2022-07-29T11:16:21;20.70;60.80
49373;DHT22;44113;38.408;-122.974;2022-07-29T11:21:38;20.70;60.80
49373;DHT22;44113;38.408;-122.974;2022-07-29T11:24:15;20.60;60.70
49373;DHT22;44113;38.408;-122.974;2022-07-29T11:26:43;20.60;60.80
49373;DHT22;44113;38.408;-122.974;2022-07-29T11:29:22;20.60;60.80
49373;DHT22;44113;38.408;-122.974;2022-07-29T11:31:51;20.60;60.70
49373;DHT22;44113;38.408;-122.974;2022-07-29T11:34:26;20.60;61.40
49373;DHT22;44113;38.408;-122.974;2022-07-29T11:45:14;20.50;61.10
49373;DHT22;44113;38.408;-122.974;2022-07-29T11:47:48;20.50;61.00
49373;DHT22;44113;38.408;-122.974;2022-07-29T11:50:28;20.40;60.90
49373;DHT22;44113;38.408;-122.974;2022-07-29T11:52:55;20.40;61.00
49373;DHT22;44113;38.408;-122.974;2022-07-29T11:55:23;20.40;61.00
49373;DHT22;44113;38.408;-122.974;2022-07-29T11:57:52;20.40;61.00
49373;DHT22;44113;38.408;-122.974;2022-07-29T12:00:39;20.30;61.00
49373;DHT22;44113;38.408;-122.974;2022-07-29T12:03:08;20.30;61.00
49373;DHT22;44113;38.408;-122.974;2022-07-29T12:05:42;20.40;60.90
49373;DHT22;44113;38.408;-122.974;2022-07-29T12:08:13;20.30;60.90
49373;DHT22;44113;38.408;-122.974;2022-07-29T12:10:41;20.30;60.90
49373;DHT22;44113;38.408;-122.974;2022-07-29T12:13:10;20.30;61.00
49373;DHT22;44113;38.408;-122.974;2022-07-29T12:15:36;20.30;61.10
49373;DHT22;44113;38.408;-122.974;2022-07-29T12:18:14;20.30;61.00
49373;DHT22;44113;38.408;-122.974;2022-07-29T12:20:41;20.20;61.00
49373;DHT22;44113;38.408;-122.974;2022-07-29T12:23:09;20.30;61.20
49373;DHT22;44113;38.408;-122.974;2022-07-29T12:25:39;20.20;61.20
49373;DHT22;44113;38.408;-122.974;2022-07-29T12:28:10;20.20;61.20
49373;DHT22;44113;38.408;-122.974;2022-07-29T12:30:39;20.20;61.20
49373;DHT22;44113;38.408;-122.974;2022-07-29T12:33:47;20.20;61.20
49373;DHT22;44113;38.408;-122.974;2022-07-29T12:36:07;20.20;61.20
49373;DHT22;44113;38.408;-122.974;2022-07-29T12:38:39;20.20;61.20
49373;DHT22;44113;38.408;-122.974;2022-07-29T12:41:06;20.20;61.20
49373;DHT22;44113;38.408;-122.974;2022-07-29T12:43:32;20.20;61.20
49373;DHT22;44113;38.408;-122.974;2022-07-29T12:46:13;20.10;61.90
49373;DHT22;44113;38.408;-122.974;2022-07-29T12:48:42;20.10;61.80
49373;DHT22;44113;38.408;-122.974;2022-07-29T12:51:10;20.10;61.30
49373;DHT22;44113;38.408;-122.974;2022-07-29T12:53:38;20.10;61.20
49373;DHT22;44113;38.408;-122.974;2022-07-29T12:56:05;20.10;61.20
49373;DHT22;44113;38.408;-122.974;2022-07-29T12:58:41;20.10;61.20
49373;DHT22;44113;38.408;-122.974;2022-07-29T13:01:10;20.00;61.40
49373;DHT22;44113;38.408;-122.974;2022-07-29T13:03:56;20.00;61.40
49373;DHT22;44113;38.408;-122.974;2022-07-29T13:06:40;19.90;61.40
49373;DHT22;44113;38.408;-122.974;2022-07-29T13:09:17;20.00;61.40
49373;DHT22;44113;38.408;-122.974;2022-07-29T13:11:51;20.00;62.00
49373;DHT22;44113;38.408;-122.974;2022-07-29T13:14:32;19.90;61.50
49373;DHT22;44113;38.408;-122.974;2022-07-29T13:17:04;19.90;61.60
49373;DHT22;44113;38.408;-122.974;2022-07-29T13:19:40;19.90;61.80
49373;DHT22;44113;38.408;-122.974;2022-07-29T13:22:29;19.90;61.80
49373;DHT22;44113;38.408;-122.974;2022-07-29T13:25:00;19.90;62.00
49373;DHT22;44113;38.408;-122.974;2022-07-29T13:27:31;19.80;61.70
49373;DHT22;44113;38.408;-122.974;2022-07-29T13:29:59;19.80;61.80
49373;DHT22;44113;38.408;-122.974;2022-07-29T13:32:28;19.80;61.90
49373;DHT22;44113;38.408;-122.974;2022-07-29T13:34:59;19.80;61.90
49373;DHT22;44113;38.408;-122.974;2022-07-29T13:37:26;19.80;61.80
49373;DHT22;44113;38.408;-122.974;2022-07-29T13:39:56;19.80;61.90
49373;DHT22;44113;38.408;-122.974;2022-07-29T13:42:23;19.80;61.80
49373;DHT22;44113;38.408;-122.974;2022-07-29T13:44:51;19.70;61.80
49373;DHT22;44113;38.408;-122.974;2022-07-29T13:47:21;19.70;61.90
49373;DHT22;44113;38.408;-122.974;2022-07-29T13:49:48;19.80;62.00
49373;DHT22;44113;38.408;-122.974;2022-07-29T13:52:14;19.70;62.10
49373;DHT22;44113;38.408;-122.974;2022-07-29T13:54:42;19.70;62.00
49373;DHT22;44113;38.408;-122.974;2022-07-29T13:57:10;19.80;62.20
49373;DHT22;44113;38.408;-122.974;2022-07-29T13:59:37;19.70;62.10
49373;DHT22;44113;38.408;-122.974;2022-07-29T14:02:03;19.70;62.30
49373;DHT22;44113;38.408;-122.974;2022-07-29T14:04:31;19.60;62.50
49373;DHT22;44113;38.408;-122.974;2022-07-29T14:06:58;19.60;62.40
49373;DHT22;44113;38.408;-122.974;2022-07-29T14:09:24;19.60;62.40
49373;DHT22;44113;38.408;-122.974;2022-07-29T14:11:52;19.70;62.20
49373;DHT22;44113;38.408;-122.974;2022-07-29T14:14:19;19.60;62.10
49373;DHT22;44113;38.408;-122.974;2022-07-29T14:16:46;19.60;62.20
49373;DHT22;44113;38.408;-122.974;2022-07-29T14:19:12;19.60;62.40
49373;DHT22;44113;38.408;-122.974;2022-07-29T14:21:39;19.60;62.40
49373;DHT22;44113;38.408;-122.974;2022-07-29T14:24:06;19.60;62.50
49373;DHT22;44113;38.408;-122.974;2022-07-29T14:26:32;19.60;62.50
49373;DHT22;44113;38.408;-122.974;2022-07-29T14:28:59;19.50;62.50
49373;DHT22;44113;38.408;-122.974;2022-07-29T14:31:25;19.60;62.60
49373;DHT22;44113;38.408;-122.974;2022-07-29T14:33:52;19.50;62.60
49373;DHT22;44113;38.408;-122.974;2022-07-29T14:36:18;19.50;62.60
49373;DHT22;44113;38.408;-122.974;2022-07-29T14:38:44;19.50;62.60
49373;DHT22;44113;38.408;-122.974;2022-07-29T14:41:12;19.50;62.50
49373;DHT22;44113;38.408;-122.974;2022-07-29T14:43:38;19.50;62.60
49373;DHT22;44113;38.408;-122.974;2022-07-29T14:46:05;19.60;62.50
49373;DHT22;44113;38.408;-122.974;2022-07-29T14:48:32;19.50;62.50
49373;DHT22;44113;38.408;-122.974;2022-07-29T14:50:59;19.50;62.70
49373;DHT22;44113;38.408;-122.974;2022-07-29T14:53:25;19.40;62.90
49373;DHT22;44113;38.408;-122.974;2022-07-29T14:55:52;19.40;62.90
49373;DHT22;44113;38.408;-122.974;2022-07-29T14:58:18;19.40;62.90
49373;DHT22;44113;38.408;-122.974;2022-07-29T15:00:46;19.40;63.00
49373;DHT22;44113;38.408;-122.974;2022-07-29T15:03:13;19.40;63.00
49373;DHT22;44113;38.408;-122.974;2022-07-29T15:05:39;19.40;63.10
49373;DHT22;44113;38.408;-122.974;2022-07-29T15:08:06;19.40;63.20
49373;DHT22;44113;38.408;-122.974;2022-07-29T15:10:34;19.40;63.10
49373;DHT22;44113;38.408;-122.974;2022-07-29T15:13:00;19.40;63.00
49373;DHT22;44113;38.408;-122.974;2022-07-29T15:15:27;19.40;63.10
49373;DHT22;44113;38.408;-122.974;2022-07-29T15:17:54;19.40;62.90
49373;DHT22;44113;38.408;-122.974;2022-07-29T15:20:20;19.40;63.10
49373;DHT22;44113;38.408;-122.974;2022-07-29T15:22:47;19.40;63.20
49373;DHT22;44113;38.408;-122.974;2022-07-29T15:25:13;19.40;63.30
49373;DHT22;44113;38.408;-122.974;2022-07-29T15:27:40;19.40;63.40
49373;DHT22;44113;38.408;-122.974;2022-07-29T15:30:07;19.40;63.50
49373;DHT22;44113;38.408;-122.974;2022-07-29T15:32:33;19.40;63.50
49373;DHT22;44113;38.408;-122.974;2022-07-29T15:35:00;19.40;63.60
49373;DHT22;44113;38.408;-122.974;2022-07-29T15:37:27;19.40;63.50
49373;DHT22;44113;38.408;-122.974;2022-07-29T15:39:54;19.30;63.60
49373;DHT22;44113;38.408;-122.974;2022-07-29T15:42:21;19.30;63.60